createdAt,value
2019-05-10T00:00:07.196Z,77.65
2019-05-10T00:02:52.381Z,77.82
2019-05-10T00:05:37.542Z,77.67
2019-05-10T00:08:23.150Z,77.48
2019-05-10T00:10:54.640Z,77.78
2019-05-10T00:13:22.719Z,77.93
2019-05-10T00:15:49.424Z,77.94
2019-05-10T00:18:16.099Z,77.96
2019-05-10T00:20:42.934Z,78.12
2019-05-10T00:23:09.707Z,78.21
2019-05-10T00:25:36.406Z,78.27
2019-05-10T00:28:03.649Z,78.14
2019-05-10T00:30:30.417Z,77.91
2019-05-10T00:32:57.099Z,77.78
2019-05-10T00:35:23.931Z,77.99
2019-05-10T00:37:50.610Z,78.05
2019-05-10T00:40:17.729Z,78.12
2019-05-10T00:42:44.288Z,77.43
2019-05-10T00:45:11.215Z,77.73
2019-05-10T00:47:37.797Z,77.42
2019-05-10T00:50:05.043Z,77.61
2019-05-10T00:52:31.819Z,77.43
2019-05-10T00:54:58.519Z,76.84
2019-05-10T00:57:25.291Z,76.54
2019-05-10T00:59:52.109Z,76.80
2019-05-10T01:02:18.790Z,77.59
2019-05-10T01:04:45.584Z,78.60
2019-05-10T01:07:12.283Z,79.36
2019-05-10T01:09:39.072Z,80.18
2019-05-10T01:12:05.881Z,80.72
2019-05-10T01:14:32.546Z,80.92
2019-05-10T01:16:59.327Z,81.53
2019-05-10T01:19:26.165Z,81.66
2019-05-10T01:21:52.953Z,81.78
2019-05-10T01:24:19.833Z,81.74
2019-05-10T01:26:46.667Z,81.46
2019-05-10T01:29:32.961Z,81.57
2019-05-10T01:31:59.770Z,81.35
2019-05-10T01:34:26.443Z,82.23
2019-05-10T01:36:53.413Z,81.39
2019-05-10T01:39:20.219Z,82.64
2019-05-10T01:41:46.906Z,83.61
2019-05-10T01:44:13.563Z,84.55
2019-05-10T01:46:40.245Z,86.09
2019-05-10T01:49:07.077Z,86.41
2019-05-10T01:51:33.666Z,86.52
2019-05-10T01:54:00.337Z,86.88
2019-05-10T01:56:27.116Z,86.78
2019-05-10T01:58:53.720Z,87.08
2019-05-10T02:01:20.472Z,87.13
2019-05-10T02:03:47.178Z,87.29
2019-05-10T02:06:13.965Z,86.97
2019-05-10T02:08:40.765Z,86.92
2019-05-10T02:11:07.552Z,87.00
2019-05-10T02:13:34.356Z,87.08
2019-05-10T02:16:01.104Z,87.27
2019-05-10T02:18:27.776Z,86.88
2019-05-10T02:20:54.518Z,86.92
2019-05-10T02:23:21.346Z,86.60
2019-05-10T02:25:48.005Z,86.62
2019-05-10T02:28:14.697Z,85.73
2019-05-10T02:30:41.261Z,86.27
2019-05-10T02:33:07.848Z,86.75
2019-05-10T02:35:34.521Z,86.20
2019-05-10T02:38:01.109Z,86.24
2019-05-10T02:40:27.897Z,86.05
2019-05-10T02:42:54.683Z,85.88
2019-05-10T02:45:21.462Z,86.06
2019-05-10T02:47:48.202Z,85.75
2019-05-10T02:50:15.127Z,85.89
2019-05-10T02:52:41.781Z,85.93
2019-05-10T02:55:08.788Z,85.48
2019-05-10T02:57:36.084Z,85.13
2019-05-10T03:00:04.742Z,84.51
2019-05-10T03:02:32.345Z,84.33
2019-05-10T03:04:59.502Z,83.96
2019-05-10T03:07:26.406Z,84.14
2019-05-10T03:09:53.147Z,84.79
2019-05-10T03:12:22.109Z,85.12
2019-05-10T03:14:52.183Z,84.93
2019-05-10T03:17:19.061Z,84.72
2019-05-10T03:19:47.442Z,84.10
2019-05-10T03:22:16.062Z,83.64
2019-05-10T03:24:42.722Z,83.61
2019-05-10T03:27:09.507Z,83.03
2019-05-10T03:29:36.141Z,83.78
2019-05-10T03:32:02.962Z,83.14
2019-05-10T03:34:30.022Z,83.39
2019-05-10T03:36:56.787Z,83.97
2019-05-10T03:39:23.570Z,84.02
2019-05-10T03:41:50.360Z,84.41
2019-05-10T03:44:17.060Z,84.75
2019-05-10T03:46:43.855Z,84.45
2019-05-10T03:49:10.631Z,84.77
2019-05-10T03:51:37.385Z,84.79
2019-05-10T03:54:04.076Z,84.45
2019-05-10T03:56:30.739Z,84.66
2019-05-10T03:58:57.424Z,84.83
2019-05-10T04:01:24.299Z,85.25
2019-05-10T04:03:50.980Z,85.50
2019-05-10T04:06:17.780Z,85.17
2019-05-10T04:08:44.631Z,84.54
2019-05-10T04:11:11.471Z,84.45
2019-05-10T04:13:38.134Z,83.60
2019-05-10T04:16:05.010Z,82.88
2019-05-10T04:18:31.615Z,81.98
2019-05-10T04:20:58.332Z,81.94
2019-05-10T04:23:25.135Z,82.21
2019-05-10T04:25:51.805Z,82.06
2019-05-10T04:28:18.478Z,82.03
2019-05-10T04:30:45.372Z,82.13
2019-05-10T04:33:11.940Z,82.43
2019-05-10T04:35:38.637Z,82.60
2019-05-10T04:38:05.341Z,82.58
2019-05-10T04:40:32.216Z,81.91
2019-05-10T04:42:58.992Z,81.28
2019-05-10T04:45:25.798Z,81.27
2019-05-10T04:47:52.605Z,81.52
2019-05-10T04:50:19.464Z,81.29
2019-05-10T04:52:46.017Z,80.11
2019-05-10T04:55:13.488Z,80.20
2019-05-10T04:57:49.945Z,80.45
2019-05-10T05:00:09.446Z,80.12
2019-05-10T05:02:36.117Z,79.78
2019-05-10T05:05:03.674Z,78.47
2019-05-10T05:07:30.356Z,79.25
2019-05-10T05:09:56.936Z,79.44
2019-05-10T05:12:23.734Z,79.56
2019-05-10T05:14:50.406Z,79.65
2019-05-10T05:17:17.191Z,79.61
2019-05-10T05:19:43.874Z,78.87
2019-05-10T05:22:10.597Z,78.98
2019-05-10T05:24:37.295Z,79.28
2019-05-10T05:27:04.070Z,79.80
2019-05-10T05:29:30.853Z,80.15
2019-05-10T05:32:01.393Z,79.25
2019-05-10T05:34:26.258Z,79.96
2019-05-10T05:36:53.020Z,80.20
2019-05-10T05:39:19.795Z,80.48
2019-05-10T05:41:51.740Z,81.04
2019-05-10T05:44:15.217Z,80.64
2019-05-10T05:46:41.966Z,80.51
2019-05-10T05:49:08.664Z,80.36
2019-05-10T05:51:35.328Z,80.20
2019-05-10T05:54:04.136Z,79.27
2019-05-10T05:56:30.733Z,78.95
2019-05-10T05:58:57.472Z,78.32
2019-05-10T06:01:29.182Z,78.62
2019-05-10T06:03:52.629Z,77.74
2019-05-10T06:06:23.584Z,76.34
2019-05-10T06:08:48.055Z,75.91
2019-05-10T06:11:14.764Z,75.80
2019-05-10T06:13:41.534Z,76.34
2019-05-10T06:16:12.864Z,76.05
2019-05-10T06:18:41.513Z,76.32
2019-05-10T06:21:05.481Z,76.26
2019-05-10T06:23:34.992Z,76.48
2019-05-10T06:26:00.732Z,76.09
2019-05-10T06:28:56.502Z,78.28
2019-05-10T06:30:56.088Z,78.78
2019-05-10T06:33:22.861Z,79.56
2019-05-10T06:35:49.646Z,80.45
2019-05-10T06:38:16.311Z,80.65
2019-05-10T06:40:47.078Z,80.50
2019-05-10T06:43:13.281Z,80.61
2019-05-10T06:45:40.247Z,79.86
2019-05-10T06:48:07.013Z,80.29
2019-05-10T06:50:33.589Z,81.19
2019-05-10T06:53:06.671Z,81.09
2019-05-10T06:55:28.945Z,81.86
2019-05-10T06:57:59.122Z,81.80
2019-05-10T07:00:24.218Z,81.87
2019-05-10T07:02:51.048Z,81.42
2019-05-10T07:05:17.780Z,82.96
2019-05-10T07:07:45.544Z,82.50
2019-05-10T07:10:18.577Z,81.86
2019-05-10T07:12:41.433Z,81.62
2019-05-10T07:15:08.780Z,82.24
2019-05-10T07:17:40.907Z,81.31
2019-05-10T07:20:04.349Z,81.92
2019-05-10T07:22:30.930Z,81.73
2019-05-10T07:25:04.120Z,81.37
2019-05-10T07:27:26.153Z,81.26
2019-05-10T07:29:52.969Z,80.24
2019-05-10T07:32:22.176Z,80.00
2019-05-10T07:34:58.287Z,80.53
2019-05-10T07:37:17.294Z,80.79
2019-05-10T07:39:44.363Z,80.50
2019-05-10T07:42:11.093Z,79.99
2019-05-10T07:44:41.404Z,80.53
2019-05-10T07:47:06.434Z,81.00
2019-05-10T07:49:33.156Z,81.04
2019-05-10T07:52:02.245Z,81.72
2019-05-10T07:54:28.407Z,82.16
2019-05-10T07:56:55.176Z,82.28
2019-05-10T07:59:28.009Z,82.52
2019-05-10T08:01:50.481Z,82.28
2019-05-10T08:04:19.714Z,82.72
2019-05-10T08:06:48.712Z,82.71
2019-05-10T08:09:14.392Z,82.74
2019-05-10T08:11:41.061Z,83.07
2019-05-10T08:14:10.987Z,83.20
2019-05-10T08:16:38.617Z,82.67
2019-05-10T08:19:06.448Z,81.88
2019-05-10T08:21:33.165Z,82.12
2019-05-10T08:24:05.216Z,82.21
2019-05-10T08:26:28.980Z,82.74
2019-05-10T08:28:55.751Z,82.45
2019-05-10T08:31:25.920Z,82.05
2019-05-10T08:33:58.351Z,80.70
2019-05-10T08:36:21.935Z,80.62
2019-05-10T08:38:59.342Z,80.45
2019-05-10T08:41:18.455Z,81.86
2019-05-10T08:43:45.468Z,82.37
2019-05-10T08:46:12.216Z,84.09
2019-05-10T08:48:46.641Z,83.60
2019-05-10T08:51:07.831Z,83.72
2019-05-10T08:53:34.530Z,82.84
2019-05-10T08:56:02.255Z,82.71
2019-05-10T08:58:36.744Z,81.42
2019-05-10T09:01:15.532Z,81.89
2019-05-10T09:03:27.621Z,80.19
2019-05-10T09:05:54.418Z,79.41
2019-05-10T09:08:24.411Z,78.72
2019-05-10T09:10:49.784Z,77.60
2019-05-10T09:13:16.728Z,74.75
2019-05-10T09:15:51.761Z,74.21
2019-05-10T09:18:12.873Z,74.89
2019-05-10T09:20:42.014Z,73.92
2019-05-10T09:23:14.272Z,72.47
2019-05-10T09:25:37.395Z,73.70
2019-05-10T09:28:11.739Z,73.24
2019-05-10T09:30:35.620Z,70.46
2019-05-10T09:33:08.605Z,69.98
2019-05-10T09:35:33.006Z,71.11
2019-05-10T09:38:01.782Z,71.31
2019-05-10T09:40:28.537Z,71.19
2019-05-10T09:42:59.389Z,69.88
2019-05-10T09:45:24.339Z,69.83
2019-05-10T09:47:53.002Z,68.75
2019-05-10T09:50:22.786Z,67.78
2019-05-10T09:52:48.999Z,69.16
2019-05-10T09:55:17.570Z,68.19
2019-05-10T09:57:44.564Z,63.82
2019-05-10T10:00:12.040Z,65.43
2019-05-10T10:02:40.689Z,65.57
2019-05-10T10:05:08.470Z,66.32
2019-05-10T10:07:37.357Z,67.52
2019-05-10T10:10:07.149Z,68.57
2019-05-10T10:12:33.333Z,69.56
2019-05-10T10:15:00.193Z,69.96
2019-05-10T10:17:27.479Z,70.22
2019-05-10T10:19:57.711Z,69.82
2019-05-10T10:22:24.089Z,70.59
2019-05-10T10:24:54.976Z,70.65
2019-05-10T10:27:19.363Z,70.09
2019-05-10T10:29:47.516Z,70.07
2019-05-10T10:32:14.511Z,68.48
2019-05-10T10:34:43.216Z,67.46
2019-05-10T10:37:14.683Z,65.47
2019-05-10T10:39:38.261Z,63.97
2019-05-10T10:42:08.738Z,61.94
2019-05-10T10:44:33.614Z,60.07
2019-05-10T10:47:00.184Z,55.54
2019-05-10T10:49:27.963Z,52.57
2019-05-10T10:51:57.408Z,48.80
2019-05-10T10:54:28.654Z,48.28
2019-05-10T10:56:52.604Z,45.52
2019-05-10T10:59:19.280Z,42.00
2019-05-10T11:01:51.976Z,38.13
2019-05-10T11:04:16.440Z,38.57
2019-05-10T11:06:43.507Z,39.86
2019-05-10T11:09:10.486Z,43.94
2019-05-10T11:11:41.262Z,47.64
2019-05-10T11:14:07.547Z,49.61
2019-05-10T11:16:34.560Z,50.39
2019-05-10T11:19:03.566Z,49.03
2019-05-10T11:21:32.903Z,49.61
2019-05-10T11:24:01.259Z,55.00
2019-05-10T11:26:32.769Z,56.55
2019-05-10T11:28:55.994Z,59.69
2019-05-10T11:31:22.793Z,59.06
2019-05-10T11:33:53.610Z,56.73
2019-05-10T11:36:18.150Z,55.91
2019-05-10T11:38:51.977Z,51.72
2019-05-10T11:41:20.654Z,50.71
2019-05-10T11:43:42.042Z,49.67
2019-05-10T11:46:08.964Z,50.55
2019-05-10T11:48:37.304Z,51.35
2019-05-10T11:51:05.774Z,51.55
2019-05-10T11:53:32.989Z,50.16
2019-05-10T11:56:02.009Z,47.39
2019-05-10T11:58:30.871Z,46.93
2019-05-10T12:01:02.436Z,48.84
2019-05-10T12:03:25.760Z,45.61
2019-05-10T12:06:04.366Z,41.66
2019-05-10T12:08:22.354Z,35.86
2019-05-10T12:10:59.390Z,30.85
2019-05-10T12:13:20.822Z,27.60
2019-05-10T12:15:46.443Z,28.50
2019-05-10T12:18:14.681Z,30.03
2019-05-10T12:20:55.893Z,35.33
2019-05-10T12:23:13.287Z,36.44
2019-05-10T12:25:53.094Z,36.28
2019-05-10T12:28:07.625Z,37.15
2019-05-10T12:30:34.889Z,34.65
2019-05-10T12:33:08.824Z,34.30
2019-05-10T12:35:39.835Z,37.90
2019-05-10T12:38:01.685Z,36.43
2019-05-10T12:40:31.310Z,38.98
2019-05-10T12:42:57.342Z,36.00
2019-05-10T12:45:24.117Z,38.04
2019-05-10T12:47:51.854Z,37.14
2019-05-10T12:50:19.267Z,38.26
2019-05-10T12:52:53.539Z,36.69
2019-05-10T12:55:14.852Z,37.02
2019-05-10T12:57:43.456Z,38.61
2019-05-10T13:00:13.288Z,39.64
2019-05-10T13:02:39.187Z,38.54
2019-05-10T13:05:06.175Z,38.44
2019-05-10T13:07:36.627Z,42.03
2019-05-10T13:10:06.166Z,43.46
2019-05-10T13:12:30.266Z,43.02
2019-05-10T13:14:57.049Z,39.15
2019-05-10T13:17:23.914Z,42.80
2019-05-10T13:19:52.880Z,42.46
2019-05-10T13:22:19.469Z,43.14
2019-05-10T13:24:46.230Z,43.99
2019-05-10T13:27:13.033Z,44.15
2019-05-10T13:29:40.556Z,45.55
2019-05-10T13:32:08.365Z,45.25
2019-05-10T13:34:34.920Z,45.99
2019-05-10T13:37:01.702Z,43.39
2019-05-10T13:39:28.479Z,42.52
2019-05-10T13:41:57.219Z,41.49
2019-05-10T13:44:23.887Z,41.42
2019-05-10T13:46:50.678Z,39.18
2019-05-10T13:49:17.605Z,36.64
2019-05-10T13:51:44.396Z,34.71
2019-05-10T13:54:11.143Z,31.33
2019-05-10T13:56:45.288Z,30.51
2019-05-10T13:59:15.344Z,34.15
2019-05-10T14:01:35.270Z,37.07
2019-05-10T14:04:03.570Z,35.14
2019-05-10T14:06:30.318Z,37.03
2019-05-10T14:08:56.912Z,35.41
2019-05-10T14:11:23.708Z,37.46
2019-05-10T14:13:50.480Z,39.12
2019-05-10T14:16:19.508Z,39.93
2019-05-10T14:18:45.874Z,37.79
2019-05-10T14:21:12.555Z,36.14
2019-05-10T14:23:39.336Z,36.04
2019-05-10T14:26:09.114Z,39.90
2019-05-10T14:28:34.757Z,38.25
2019-05-10T14:31:01.343Z,35.55
2019-05-10T14:33:28.120Z,34.70
2019-05-10T14:36:00.312Z,37.63
2019-05-10T14:38:23.393Z,36.24
2019-05-10T14:40:50.191Z,36.30
2019-05-10T14:43:16.776Z,36.94
2019-05-10T14:45:43.538Z,36.04
2019-05-10T14:48:10.337Z,38.03
2019-05-10T14:50:37.053Z,38.02
2019-05-10T14:53:10.818Z,36.43
2019-05-10T14:55:37.486Z,33.38
2019-05-10T14:58:04.275Z,34.83
2019-05-10T15:00:31.099Z,35.34
2019-05-10T15:03:02.267Z,39.44
2019-05-10T15:05:26.456Z,40.61
2019-05-10T15:07:53.042Z,41.30
2019-05-10T15:10:19.710Z,42.70
2019-05-10T15:12:46.398Z,45.03
2019-05-10T15:15:13.256Z,44.79
2019-05-10T15:17:39.950Z,46.35
2019-05-10T15:20:06.726Z,45.87
2019-05-10T15:22:33.422Z,46.53
2019-05-10T15:25:00.189Z,46.62
2019-05-10T15:27:26.976Z,49.05
2019-05-10T15:29:58.738Z,48.08
2019-05-10T15:32:22.133Z,48.44
2019-05-10T15:35:05.607Z,47.34
2019-05-10T15:37:17.908Z,47.99
2019-05-10T15:39:44.881Z,48.54
2019-05-10T15:42:11.687Z,47.27
2019-05-10T15:44:38.459Z,47.46
2019-05-10T15:47:05.704Z,49.52
2019-05-10T15:49:32.448Z,51.26
2019-05-10T15:52:16.336Z,56.35
2019-05-10T15:54:27.923Z,63.48
2019-05-10T15:56:55.552Z,60.34
2019-05-10T15:59:22.647Z,57.50
2019-05-10T16:01:49.313Z,59.56
2019-05-10T16:04:15.996Z,51.70
2019-05-10T16:06:43.469Z,54.05
2019-05-10T16:09:17.590Z,50.79
2019-05-10T16:11:38.972Z,47.52
2019-05-10T16:14:05.792Z,54.28
2019-05-10T16:16:36.980Z,54.31
2019-05-10T16:19:01.134Z,54.34
2019-05-10T16:21:27.932Z,53.55
2019-05-10T16:23:54.719Z,53.73
2019-05-10T16:26:22.874Z,51.87
2019-05-10T16:28:53.219Z,55.40
2019-05-10T16:31:19.352Z,52.07
2019-05-10T16:33:48.148Z,51.78
2019-05-10T16:36:14.586Z,50.97
2019-05-10T16:38:41.293Z,51.85
2019-05-10T16:41:08.060Z,50.56
2019-05-10T16:43:34.662Z,52.08
2019-05-10T16:46:01.453Z,52.89
2019-05-10T16:48:28.535Z,51.51
2019-05-10T16:50:55.569Z,52.26
2019-05-10T16:53:22.394Z,53.95
2019-05-10T16:55:49.077Z,54.87
2019-05-10T16:58:17.956Z,55.10
2019-05-10T17:00:46.169Z,57.47
2019-05-10T17:03:18.334Z,56.65
2019-05-10T17:05:52.967Z,55.62
2019-05-10T17:08:10.718Z,55.06
2019-05-10T17:10:37.492Z,54.44
2019-05-10T17:13:06.546Z,55.47
2019-05-10T17:15:33.766Z,54.46
2019-05-10T17:18:01.636Z,53.91
2019-05-10T17:20:28.489Z,53.68
2019-05-10T17:23:01.535Z,53.47
2019-05-10T17:25:24.111Z,53.03
2019-05-10T17:27:57.745Z,53.34
2019-05-10T17:30:22.175Z,53.02
2019-05-10T17:32:48.289Z,52.18
2019-05-10T17:35:15.061Z,52.46
2019-05-10T17:37:41.817Z,53.49
2019-05-10T17:40:10.631Z,52.97
2019-05-10T17:42:41.341Z,53.22
2019-05-10T17:45:07.054Z,54.22
2019-05-10T17:47:33.851Z,54.24
2019-05-10T17:50:00.719Z,54.95
2019-05-10T17:52:27.422Z,54.78
2019-05-10T17:54:54.110Z,55.63
2019-05-10T17:57:20.775Z,55.54
2019-05-10T17:59:52.785Z,56.46
2019-05-10T18:02:16.166Z,56.39
2019-05-10T18:04:42.897Z,55.05
2019-05-10T18:07:09.581Z,55.36
2019-05-10T18:09:36.260Z,55.51
2019-05-10T18:12:03.030Z,55.28
2019-05-10T18:14:29.800Z,54.65
2019-05-10T18:16:56.459Z,53.63
2019-05-10T18:19:24.580Z,55.18
2019-05-10T18:21:54.978Z,54.98
2019-05-10T18:24:20.474Z,56.66
2019-05-10T18:26:47.160Z,58.42
2019-05-10T18:29:13.855Z,59.74
2019-05-10T18:31:40.530Z,61.07
2019-05-10T18:34:07.243Z,62.96
2019-05-10T18:36:51.075Z,63.51
2019-05-10T18:39:09.082Z,65.87
2019-05-10T18:41:33.547Z,66.32
2019-05-10T18:44:00.312Z,66.97
2019-05-10T18:46:27.120Z,67.15
2019-05-10T18:48:53.698Z,68.49
2019-05-10T18:51:24.529Z,70.00
2019-05-10T18:53:49.103Z,69.65
2019-05-10T18:56:15.976Z,70.35
2019-05-10T18:58:42.554Z,70.24
2019-05-10T19:01:09.359Z,70.76
2019-05-10T19:03:36.035Z,70.40
2019-05-10T19:06:10.426Z,70.47
2019-05-10T19:08:31.548Z,70.84
2019-05-10T19:10:58.438Z,71.19
2019-05-10T19:13:25.514Z,70.44
2019-05-10T19:15:57.773Z,70.92
2019-05-10T19:18:23.287Z,70.25
2019-05-10T19:20:53.473Z,71.34
2019-05-10T19:23:19.505Z,71.45
2019-05-10T19:25:51.872Z,70.41
2019-05-10T19:28:21.081Z,71.23
2019-05-10T19:30:44.403Z,71.31
2019-05-10T19:33:11.070Z,71.53
2019-05-10T19:35:38.010Z,71.14
2019-05-10T19:38:04.844Z,72.18
2019-05-10T19:40:34.420Z,72.22
2019-05-10T19:43:01.156Z,72.35
2019-05-10T19:45:31.102Z,72.50
2019-05-10T19:47:57.231Z,72.64
2019-05-10T19:50:31.071Z,72.80
2019-05-10T19:52:52.848Z,72.86
2019-05-10T19:55:21.679Z,72.64
2019-05-10T19:57:49.616Z,73.15
2019-05-10T20:00:19.393Z,73.45
2019-05-10T20:02:46.182Z,72.97
2019-05-10T20:05:13.173Z,72.61
2019-05-10T20:07:45.869Z,72.64
2019-05-10T20:10:09.028Z,72.48
2019-05-10T20:12:35.594Z,72.75
2019-05-10T20:15:02.471Z,72.65
2019-05-10T20:17:29.516Z,72.64
2019-05-10T20:19:56.265Z,72.85
2019-05-10T20:22:22.844Z,73.02
2019-05-10T20:24:49.411Z,72.94
2019-05-10T20:27:16.105Z,73.18
2019-05-10T20:29:42.886Z,73.50
2019-05-10T20:32:09.679Z,73.40
2019-05-10T20:34:36.257Z,73.76
2019-05-10T20:37:03.152Z,74.08
2019-05-10T20:39:30.099Z,74.01
2019-05-10T20:41:56.970Z,73.75
2019-05-10T20:44:23.714Z,73.90
2019-05-10T20:46:50.463Z,74.54
2019-05-10T20:49:17.322Z,74.81
2019-05-10T20:51:44.154Z,75.25
2019-05-10T20:54:10.849Z,75.66
2019-05-10T20:56:37.527Z,76.08
2019-05-10T20:59:04.291Z,76.34
2019-05-10T21:01:30.984Z,76.62
2019-05-10T21:03:57.654Z,77.04
2019-05-10T21:06:24.336Z,77.65
2019-05-10T21:08:51.186Z,77.78
2019-05-10T21:11:18.055Z,78.23
2019-05-10T21:13:44.839Z,78.77
2019-05-10T21:16:11.547Z,78.91
2019-05-10T21:18:38.359Z,79.11
2019-05-10T21:21:05.034Z,79.30
2019-05-10T21:23:31.705Z,79.66
2019-05-10T21:25:58.421Z,80.00
2019-05-10T21:28:25.100Z,79.82
2019-05-10T21:30:53.649Z,79.62
2019-05-10T21:33:20.623Z,79.49
2019-05-10T21:35:47.338Z,79.67
2019-05-10T21:38:14.278Z,79.74
2019-05-10T21:40:41.494Z,79.59
2019-05-10T21:43:08.443Z,79.20
2019-05-10T21:45:35.204Z,79.01
2019-05-10T21:48:01.996Z,79.01
2019-05-10T21:50:28.717Z,78.78
2019-05-10T21:52:55.362Z,78.25
2019-05-10T21:55:21.927Z,78.40
2019-05-10T21:57:48.739Z,78.36
2019-05-10T22:00:16.713Z,78.44
2019-05-10T22:02:43.511Z,78.51
2019-05-10T22:05:10.290Z,78.57
2019-05-10T22:07:37.077Z,78.93
2019-05-10T22:10:04.200Z,79.18
2019-05-10T22:12:31.194Z,79.53
2019-05-10T22:14:57.864Z,79.91
2019-05-10T22:17:24.580Z,80.08
2019-05-10T22:19:51.209Z,80.11
2019-05-10T22:22:17.892Z,80.33
2019-05-10T22:24:44.546Z,80.65
2019-05-10T22:27:11.421Z,80.83
2019-05-10T22:29:38.304Z,80.93
2019-05-10T22:32:05.089Z,80.79
2019-05-10T22:34:31.762Z,80.62
2019-05-10T22:36:58.443Z,80.59
2019-05-10T22:39:25.144Z,80.38
2019-05-10T22:41:53.169Z,80.29
2019-05-10T22:44:20.129Z,80.22
2019-05-10T22:46:46.840Z,80.17
2019-05-10T22:49:13.511Z,80.08
2019-05-10T22:51:40.205Z,79.79
2019-05-10T22:54:06.893Z,79.78
2019-05-10T22:56:33.609Z,79.58
2019-05-10T22:59:00.234Z,79.95
2019-05-10T23:01:27.520Z,80.32
2019-05-10T23:03:54.213Z,80.27
2019-05-10T23:06:21.051Z,80.48
2019-05-10T23:08:47.620Z,80.84
2019-05-10T23:11:14.342Z,81.10
2019-05-10T23:13:41.222Z,81.34
2019-05-10T23:16:07.919Z,81.14
2019-05-10T23:18:34.597Z,81.44
2019-05-10T23:21:01.317Z,81.95
2019-05-10T23:23:28.001Z,82.63
2019-05-10T23:25:54.928Z,83.33
2019-05-10T23:28:21.610Z,83.67
2019-05-10T23:30:48.341Z,83.85
2019-05-10T23:33:15.120Z,83.86
2019-05-10T23:35:41.803Z,83.71
2019-05-10T23:38:08.487Z,83.58
2019-05-10T23:40:35.179Z,83.43
2019-05-10T23:43:01.913Z,83.23
2019-05-10T23:45:28.669Z,82.77
2019-05-10T23:47:55.258Z,83.01
2019-05-10T23:50:21.926Z,83.19
2019-05-10T23:52:48.498Z,83.51
2019-05-10T23:55:15.268Z,83.59
2019-05-10T23:57:42.102Z,83.52
